createdAt,value
2017-05-18T15:36:03.185Z,21.79
2017-05-18T15:36:23.439Z,21.72
2017-05-18T15:36:43.458Z,21.64
2017-05-18T15:37:03.517Z,21.61
2017-05-18T15:37:24.210Z,21.48
2017-05-18T15:37:44.226Z,21.45
2017-05-18T15:38:04.195Z,21.27
2017-05-18T15:38:23.857Z,21.42
2017-05-18T15:38:43.844Z,21.27
2017-05-18T15:39:04.113Z,21.33
2017-05-18T15:39:23.533Z,21.38
2017-05-18T15:39:43.536Z,21.38
2017-05-18T15:40:03.580Z,21.44
2017-05-18T15:40:21.915Z,21.45
2017-05-18T15:40:41.821Z,21.49
2017-05-18T15:41:01.821Z,21.41
2017-05-18T15:41:22.350Z,21.49
2017-05-18T15:41:42.343Z,21.44
2017-05-18T15:42:02.403Z,21.48
2017-05-18T15:42:20.708Z,21.45
2017-05-18T15:42:40.084Z,21.35
2017-05-18T15:43:00.121Z,21.21
2017-05-18T15:43:20.113Z,21.23
2017-05-18T15:43:40.086Z,21.31
2017-05-18T15:44:01.791Z,21.29
2017-05-18T15:44:21.289Z,21.3
2017-05-18T15:44:41.303Z,21.23
2017-05-18T15:45:00.820Z,21.29
2017-05-18T15:45:21.003Z,21.29
2017-05-18T15:45:41.004Z,21.35
2017-05-18T15:45:59.849Z,21.31
2017-05-18T15:46:19.374Z,21.3
2017-05-18T15:46:39.413Z,21.26
2017-05-18T15:47:13.218Z,21.36
2017-05-18T15:47:32.622Z,21.26
2017-05-18T15:47:52.049Z,21.38
2017-05-18T15:48:12.663Z,21.45
2017-05-18T15:48:31.518Z,21.42
2017-05-18T15:48:51.575Z,21.48
2017-05-18T15:49:11.591Z,21.53
2017-05-18T15:49:31.582Z,21.57
2017-05-18T15:49:51.606Z,21.56
2017-05-18T15:50:11.607Z,21.57
2017-05-18T15:50:31.614Z,21.54
2017-05-18T15:50:51.682Z,21.42
2017-05-18T15:51:11.765Z,21.41
2017-05-18T15:51:31.751Z,21.39
2017-05-18T15:51:51.730Z,21.36
2017-05-18T15:52:11.174Z,21.31
2017-05-18T15:52:30.650Z,21.39
2017-05-18T15:52:50.661Z,21.33
2017-05-18T15:53:10.702Z,21.38
2017-05-18T15:53:30.209Z,21.41
2017-05-18T15:53:49.659Z,21.45
2017-05-18T15:54:09.059Z,21.61
2017-05-18T15:54:27.963Z,21.66
2017-05-18T15:54:46.939Z,21.64
2017-05-18T15:55:06.997Z,21.61
2017-05-18T15:55:26.535Z,21.64
2017-05-18T15:55:46.575Z,21.41
2017-05-18T15:56:06.613Z,21.35
2017-05-18T15:56:26.601Z,21.38
2017-05-18T15:56:46.617Z,21.44
2017-05-18T15:57:06.028Z,21.26
2017-05-18T15:57:25.997Z,21.33
2017-05-18T15:57:46.078Z,21.26
2017-05-18T15:58:06.134Z,21.41
2017-05-18T15:58:26.128Z,21.33
2017-05-18T15:58:45.539Z,21.42
2017-05-18T15:59:05.560Z,21.49
2017-05-18T15:59:25.522Z,21.42
2017-05-18T15:59:44.954Z,21.48
2017-05-18T16:00:04.926Z,21.49
2017-05-18T16:00:23.876Z,21.46
2017-05-18T16:00:43.903Z,21.38
2017-05-18T16:01:03.956Z,21.42
2017-05-18T16:01:23.962Z,21.39
2017-05-18T16:01:43.955Z,21.23
2017-05-18T16:02:03.991Z,21.29
2017-05-18T16:02:23.426Z,21.31
2017-05-18T16:02:43.464Z,21.24
2017-05-18T16:03:03.485Z,21.31
2017-05-18T16:03:22.354Z,21.23
2017-05-18T16:03:42.392Z,21.23
2017-05-18T16:04:02.403Z,21.19
2017-05-18T16:04:20.169Z,21.31
2017-05-18T16:04:40.171Z,21.16
2017-05-18T16:05:00.234Z,21.29
2017-05-18T16:05:19.102Z,21.17
2017-05-18T16:05:39.201Z,21.24
2017-05-18T16:05:59.223Z,21.23
2017-05-18T16:06:19.223Z,21.2
2017-05-18T16:06:39.836Z,21.19
2017-05-18T16:06:59.828Z,21.21
2017-05-18T16:07:19.254Z,21.17
2017-05-18T16:07:39.239Z,21.24
2017-05-18T16:07:59.254Z,21.27
2017-05-18T16:08:19.237Z,21.27
2017-05-18T16:08:38.851Z,21.26
2017-05-18T16:08:58.872Z,21.3
2017-05-18T16:09:17.765Z,21.33
2017-05-18T16:09:39.248Z,21.45
2017-05-18T16:09:59.802Z,21.45
2017-05-18T16:10:19.296Z,21.56
2017-05-18T16:10:38.784Z,21.53
2017-05-18T16:10:59.600Z,21.48
2017-05-18T16:11:21.231Z,21.46
2017-05-18T16:11:41.752Z,21.44
2017-05-18T16:12:01.888Z,21.41
2017-05-18T16:12:22.147Z,21.41
2017-05-18T16:12:41.982Z,21.42
2017-05-18T16:13:01.408Z,21.44
2017-05-18T16:13:21.869Z,21.49
2017-05-18T16:13:42.154Z,21.51
2017-05-18T16:14:03.221Z,21.56
2017-05-18T16:14:22.656Z,21.59
2017-05-18T16:14:42.664Z,21.7
2017-05-18T16:15:02.316Z,21.74
2017-05-18T16:15:22.369Z,21.75
2017-05-18T16:15:42.410Z,21.64
2017-05-18T16:16:01.868Z,21.69
2017-05-18T16:16:20.800Z,21.79
2017-05-18T16:16:40.468Z,21.82
2017-05-18T16:17:00.481Z,21.92
2017-05-18T16:17:19.904Z,21.94
2017-05-18T16:17:38.816Z,21.84
2017-05-18T16:17:58.855Z,22.01
2017-05-18T16:18:18.917Z,21.98
2017-05-18T16:19:12.834Z,22.12
2017-05-18T16:19:32.824Z,22.19
2017-05-18T16:19:52.752Z,22.13
2017-05-18T16:20:12.352Z,22.26
2017-05-18T16:20:32.433Z,22.24
2017-05-18T16:20:52.432Z,22.28
2017-05-18T16:21:12.003Z,22.3
2017-05-18T16:21:32.344Z,22.3
2017-05-18T16:21:52.474Z,22.2
2017-05-18T16:22:12.822Z,22.3
2017-05-18T16:22:32.754Z,22.28
2017-05-18T16:22:52.868Z,22.31
2017-05-18T16:23:26.915Z,22.28
2017-05-18T16:23:45.887Z,22.35
2017-05-18T16:24:06.087Z,22.23
2017-05-18T16:24:26.083Z,22.37
2017-05-18T16:24:46.091Z,22.35
2017-05-18T16:25:06.093Z,22.42
2017-05-18T16:25:26.043Z,22.34
2017-05-18T16:25:46.122Z,22.35
2017-05-18T16:26:06.153Z,22.34
2017-05-18T16:26:26.187Z,22.28
2017-05-18T16:26:46.151Z,22.3
2017-05-18T16:27:05.642Z,22.31
2017-05-18T16:27:25.667Z,22.07
2017-05-18T16:27:45.668Z,22.05
2017-05-18T16:28:06.257Z,22.05
2017-05-18T16:28:26.301Z,21.89
2017-05-18T16:28:46.318Z,21.69
2017-05-18T16:29:05.226Z,21.76
2017-05-18T16:29:25.668Z,21.69
2017-05-18T16:29:46.184Z,21.79
2017-05-18T16:30:05.416Z,21.84
2017-05-18T16:30:25.390Z,21.91
2017-05-18T16:30:44.839Z,21.82
2017-05-18T16:31:04.946Z,21.94
2017-05-18T16:31:24.407Z,21.94
2017-05-18T16:31:43.839Z,21.91
2017-05-18T16:32:03.257Z,21.72
2017-05-18T16:32:23.281Z,21.85
2017-05-18T16:32:42.700Z,21.78
2017-05-18T16:33:02.843Z,21.78
2017-05-18T16:33:22.821Z,21.78
2017-05-18T16:33:42.519Z,21.91
2017-05-18T16:34:02.298Z,21.82
2017-05-18T16:34:21.175Z,21.85
2017-05-18T16:34:40.579Z,21.7
2017-05-18T16:35:00.077Z,21.66
2017-05-18T16:35:20.281Z,21.57
2017-05-18T16:35:40.426Z,21.48
2017-05-18T16:36:00.667Z,21.36
2017-05-18T16:36:20.833Z,21.41
2017-05-18T16:36:40.829Z,21.39
2017-05-18T16:37:00.367Z,21.36
2017-05-18T16:37:20.395Z,21.44
2017-05-18T16:37:40.706Z,21.31
2017-05-18T16:38:00.789Z,21.26
2017-05-18T16:38:20.555Z,21.27
2017-05-18T16:38:41.103Z,21.29
2017-05-18T16:39:01.767Z,21.24
2017-05-18T16:39:20.626Z,21.17
2017-05-18T16:39:40.689Z,21.23
2017-05-18T16:40:00.703Z,21.14
2017-05-18T16:40:19.846Z,21.08
2017-05-18T16:40:40.403Z,21.2
2017-05-18T16:41:00.497Z,21.19
2017-05-18T16:41:20.553Z,21.08
2017-05-18T16:41:40.657Z,21.19
2017-05-18T16:42:01.109Z,21.12
2017-05-18T16:42:20.624Z,21.17
2017-05-18T16:42:40.649Z,21.16
2017-05-18T16:43:00.798Z,21.11
2017-05-18T16:43:20.906Z,21.08
2017-05-18T16:43:41.134Z,20.96
2017-05-18T16:44:00.749Z,20.91
2017-05-18T16:44:54.880Z,21.09
2017-05-18T16:45:14.879Z,21.06
2017-05-18T16:45:34.904Z,21.02
2017-05-18T16:45:54.594Z,20.96
2017-05-18T16:46:14.914Z,20.99
2017-05-18T16:46:35.137Z,21.01
2017-05-18T16:46:55.235Z,21.06
2017-05-18T16:47:17.521Z,21.14
2017-05-18T16:47:37.777Z,21.08
2017-05-18T16:47:57.808Z,21.23
2017-05-18T16:48:17.869Z,21.17
2017-05-18T16:48:37.825Z,21.3
2017-05-18T16:48:57.827Z,21.23
2017-05-18T16:49:17.881Z,21.33
2017-05-18T16:49:38.417Z,21.23
2017-05-18T16:49:58.412Z,21.31
2017-05-18T16:50:17.915Z,21.41
2017-05-18T16:50:38.072Z,21.39
2017-05-18T16:50:59.058Z,21.39
2017-05-18T16:51:19.485Z,21.41
2017-05-18T16:51:40.619Z,21.39
2017-05-18T16:52:00.889Z,21.17
2017-05-18T16:52:20.838Z,21.19
2017-05-18T16:52:40.936Z,21.19
2017-05-18T16:53:00.912Z,21.29
2017-05-18T16:53:20.319Z,21.21
2017-05-18T16:53:40.435Z,21.29
2017-05-18T16:54:00.464Z,21.33
2017-05-18T16:54:20.468Z,21.3
2017-05-18T16:54:40.430Z,21.31
2017-05-18T16:55:00.472Z,21.19
2017-05-18T16:55:19.384Z,21.33
2017-05-18T16:55:39.471Z,21.38
2017-05-18T16:56:00.052Z,21.31
2017-05-18T16:56:20.045Z,21.21
2017-05-18T16:56:40.079Z,21.26
2017-05-18T16:57:00.115Z,21.24
2017-05-18T16:57:20.215Z,21.31
2017-05-18T16:57:40.382Z,21.21
2017-05-18T16:58:00.923Z,21.16
2017-05-18T16:58:20.360Z,21.16
2017-05-18T16:58:40.468Z,21.23
2017-05-18T16:58:59.900Z,21.19
2017-05-18T16:59:19.990Z,21.19
2017-05-18T16:59:40.033Z,21.19
2017-05-18T17:00:00.049Z,21.2
2017-05-18T17:00:19.496Z,21.21
2017-05-18T17:00:39.456Z,21.16
2017-05-18T17:00:59.504Z,21.01
2017-05-18T17:01:19.516Z,21.19
2017-05-18T17:01:38.963Z,21.16
2017-05-18T17:01:59.115Z,21.12
2017-05-18T17:02:19.140Z,20.91
2017-05-18T17:02:39.126Z,20.99
2017-05-18T17:02:59.143Z,21.01
2017-05-18T17:03:19.106Z,21.01
2017-05-18T17:04:12.965Z,20.8
2017-05-18T17:04:32.433Z,20.79
2017-05-18T17:04:51.826Z,20.75
2017-05-18T17:05:11.894Z,20.83
2017-05-18T17:05:31.309Z,20.82
2017-05-18T17:05:51.317Z,20.61
2017-05-18T17:06:11.339Z,20.61
2017-05-18T17:06:31.302Z,20.5
2017-05-18T17:06:51.321Z,20.51
2017-05-18T17:07:11.301Z,20.64
2017-05-18T17:07:31.255Z,20.68
2017-05-18T17:07:50.644Z,20.65
2017-05-18T17:08:10.088Z,20.61
2017-05-18T17:08:30.144Z,20.64
2017-05-18T17:08:50.113Z,20.65
2017-05-18T17:09:10.108Z,20.61
2017-05-18T17:09:30.114Z,20.53
2017-05-18T17:09:50.076Z,20.62
2017-05-18T17:10:08.969Z,20.47
2017-05-18T17:10:28.994Z,20.54
2017-05-18T17:10:49.087Z,20.64
2017-05-18T17:11:08.562Z,20.5
2017-05-18T17:11:27.971Z,20.68
2017-05-18T17:11:47.927Z,20.68
2017-05-18T17:12:07.926Z,20.74
2017-05-18T17:12:27.321Z,20.5
2017-05-18T17:12:47.266Z,20.56
2017-05-18T17:13:07.280Z,20.54
2017-05-18T17:13:27.324Z,20.51
2017-05-18T17:13:47.303Z,20.34
2017-05-18T17:14:07.281Z,20.49
2017-05-18T17:14:26.734Z,20.5
2017-05-18T17:14:46.500Z,20.47
2017-05-18T17:15:06.210Z,20.46
2017-05-18T17:15:26.833Z,20.4
2017-05-18T17:15:46.779Z,20.37
2017-05-18T17:16:06.199Z,20.33
2017-05-18T17:16:25.606Z,20.34
2017-05-18T17:16:45.587Z,20.31
2017-05-18T17:17:05.045Z,20.3
2017-05-18T17:17:25.013Z,20.24
2017-05-18T17:17:44.439Z,20.2
2017-05-18T17:18:03.857Z,20.12
2017-05-18T17:18:23.350Z,20.08
2017-05-18T17:18:43.319Z,20.01
2017-05-18T17:19:03.357Z,20.08
2017-05-18T17:19:22.803Z,20.1
2017-05-18T17:19:42.776Z,20.09
2017-05-18T17:20:02.787Z,20.13
2017-05-18T17:20:22.815Z,20.15
2017-05-18T17:20:42.896Z,19.91
2017-05-18T17:21:02.933Z,20.05
2017-05-18T17:21:22.367Z,19.88
2017-05-18T17:21:42.424Z,19.9
2017-05-18T17:22:02.440Z,19.82
2017-05-18T17:22:22.424Z,19.87
2017-05-18T17:22:42.630Z,19.79
2017-05-18T17:23:03.853Z,19.87
2017-05-18T17:23:24.225Z,19.87
2017-05-18T17:23:44.614Z,19.78
2017-05-18T17:24:04.748Z,19.75
2017-05-18T17:24:24.773Z,19.79
2017-05-18T17:24:44.227Z,19.69
2017-05-18T17:25:04.206Z,19.68
2017-05-18T17:25:24.168Z,19.73
2017-05-18T17:25:44.162Z,19.73
2017-05-18T17:26:04.326Z,19.76
2017-05-18T17:26:24.194Z,19.72
2017-05-18T17:26:44.275Z,19.82
2017-05-18T17:27:04.251Z,19.72
2017-05-18T17:27:24.263Z,19.76
2017-05-18T17:27:44.331Z,19.78
2017-05-18T17:28:03.787Z,19.8
2017-05-18T17:28:23.338Z,19.76
2017-05-18T17:28:43.316Z,19.79
2017-05-18T17:29:03.375Z,19.87
2017-05-18T17:29:22.800Z,19.79
2017-05-18T17:29:42.724Z,19.76
2017-05-18T17:30:02.138Z,19.76
2017-05-18T17:30:22.113Z,19.72
2017-05-18T17:30:42.186Z,19.68
2017-05-18T17:31:02.157Z,19.61
2017-05-18T17:31:22.132Z,19.57
2017-05-18T17:31:41.581Z,19.55
2017-05-18T17:32:01.540Z,19.58
2017-05-18T17:32:20.973Z,19.55
2017-05-18T17:32:40.962Z,19.61
2017-05-18T17:32:59.854Z,19.63
2017-05-18T17:33:19.242Z,19.65
2017-05-18T17:33:39.222Z,19.61
2017-05-18T17:33:59.230Z,19.57
2017-05-18T17:34:18.090Z,19.65
2017-05-18T17:34:38.853Z,19.71
2017-05-18T17:34:58.933Z,19.71
2017-05-18T17:35:18.686Z,19.68
2017-05-18T17:35:39.013Z,19.72
2017-05-18T17:35:58.471Z,19.76
2017-05-18T17:36:18.476Z,19.57
2017-05-18T17:36:40.570Z,19.63
2017-05-18T17:37:01.289Z,19.69
2017-05-18T17:37:21.340Z,19.72
2017-05-18T17:37:41.330Z,19.69
2017-05-18T17:38:01.615Z,19.69
2017-05-18T17:38:21.819Z,19.75
2017-05-18T17:38:42.394Z,19.69
2017-05-18T17:39:02.473Z,19.75
2017-05-18T17:39:22.377Z,19.69
2017-05-18T17:39:42.625Z,19.71
2017-05-18T17:40:02.613Z,19.82
2017-05-18T17:40:22.589Z,19.9
2017-05-18T17:40:42.592Z,19.91
2017-05-18T17:41:02.700Z,19.94
2017-05-18T17:41:22.684Z,19.93
2017-05-18T17:41:42.703Z,19.95
2017-05-18T17:42:02.689Z,19.95
2017-05-18T17:42:22.643Z,19.91
2017-05-18T17:42:42.743Z,19.8
2017-05-18T17:43:03.696Z,19.91
2017-05-18T17:43:24.421Z,19.87
2017-05-18T17:43:45.290Z,19.88
2017-05-18T17:44:05.995Z,19.78
2017-05-18T17:44:25.760Z,19.69
2017-05-18T17:44:45.753Z,19.71
2017-05-18T17:45:06.759Z,19.75
2017-05-18T17:45:27.899Z,19.75
2017-05-18T17:45:48.797Z,19.82
2017-05-18T17:46:09.015Z,19.87
2017-05-18T17:46:29.078Z,19.79
2017-05-18T17:46:50.096Z,19.87
2017-05-18T17:47:11.191Z,19.9
2017-05-18T17:47:30.680Z,19.9
2017-05-18T17:47:50.686Z,19.88
2017-05-18T17:48:10.111Z,19.98
2017-05-18T17:48:30.110Z,19.91
2017-05-18T17:48:50.140Z,19.9
2017-05-18T17:49:09.586Z,19.91
2017-05-18T17:49:29.584Z,19.9
2017-05-18T17:49:49.773Z,19.86
2017-05-18T17:50:09.152Z,19.75
2017-05-18T17:50:29.174Z,19.76
2017-05-18T17:50:49.237Z,19.86
2017-05-18T17:51:09.277Z,19.83
2017-05-18T17:51:29.247Z,19.86
2017-05-18T17:51:48.634Z,19.83
2017-05-18T17:52:08.652Z,19.88
2017-05-18T17:52:27.496Z,19.86
2017-05-18T17:52:47.454Z,19.82
2017-05-18T17:53:07.422Z,19.8
2017-05-18T17:53:27.437Z,19.88
2017-05-18T17:53:47.403Z,19.83
2017-05-18T17:54:06.383Z,19.83
2017-05-18T17:54:25.809Z,19.76
2017-05-18T17:54:45.524Z,19.71
2017-05-18T17:55:05.539Z,19.58
2017-05-18T17:55:25.519Z,19.65
2017-05-18T17:55:44.951Z,19.64
2017-05-18T17:56:04.975Z,19.57
2017-05-18T17:56:24.511Z,19.65
2017-05-18T17:56:44.458Z,19.61
2017-05-18T17:57:03.916Z,19.54
2017-05-18T17:57:23.911Z,19.64
2017-05-18T17:57:43.623Z,19.65
2017-05-18T17:58:02.432Z,19.61
2017-05-18T17:58:21.177Z,19.6
2017-05-18T17:58:40.476Z,19.73
2017-05-18T17:58:59.739Z,19.65
2017-05-18T17:59:18.590Z,19.72
2017-05-18T17:59:38.073Z,19.55
2017-05-18T18:00:11.523Z,19.72
2017-05-18T18:00:31.051Z,19.64
2017-05-18T18:00:49.863Z,19.72
2017-05-18T18:01:08.712Z,19.73
2017-05-18T18:01:27.473Z,19.79
2017-05-18T18:01:46.862Z,19.88
2017-05-18T18:02:06.692Z,19.72
2017-05-18T18:02:25.917Z,19.73
2017-05-18T18:02:45.472Z,19.75
2017-05-18T18:03:04.469Z,19.75
2017-05-18T18:03:23.901Z,19.75
2017-05-18T18:03:43.345Z,19.72
2017-05-18T18:04:02.904Z,19.73
2017-05-18T18:04:21.870Z,19.64
2017-05-18T18:04:41.173Z,19.72
2017-05-18T18:05:00.642Z,19.73
2017-05-18T18:05:19.502Z,19.63
2017-05-18T18:05:38.893Z,19.64
2017-05-18T18:06:00.245Z,19.71
2017-05-18T18:06:19.501Z,19.54
2017-05-18T18:06:38.980Z,19.61
2017-05-18T18:06:58.693Z,19.55
2017-05-18T18:07:18.478Z,19.6
2017-05-18T18:07:37.851Z,19.63
2017-05-18T18:07:57.269Z,19.61
2017-05-18T18:08:16.682Z,19.53
2017-05-18T18:08:34.930Z,19.63
2017-05-18T18:08:54.194Z,19.61
2017-05-18T18:09:12.956Z,19.6
2017-05-18T18:09:31.810Z,19.61
2017-05-18T18:09:51.501Z,19.64
2017-05-18T18:10:10.296Z,19.69
2017-05-18T18:10:29.666Z,19.73
2017-05-18T18:10:48.977Z,19.71
2017-05-18T18:11:08.212Z,19.73
2017-05-18T18:11:27.511Z,19.73
2017-05-18T18:11:46.803Z,19.73
2017-05-18T18:12:06.047Z,19.75
2017-05-18T18:12:25.357Z,19.73
2017-05-18T18:12:44.670Z,19.63
2017-05-18T18:13:04.022Z,19.54
2017-05-18T18:13:23.321Z,19.64
2017-05-18T18:13:42.608Z,19.61
2017-05-18T18:14:01.866Z,19.57
2017-05-18T18:14:20.136Z,19.63
2017-05-18T18:14:39.439Z,19.61
2017-05-18T18:14:58.733Z,19.48
2017-05-18T18:15:17.544Z,19.54
2017-05-18T18:15:36.957Z,19.57
2017-05-18T18:15:55.847Z,19.64
2017-05-18T18:16:15.223Z,19.35
2017-05-18T18:16:34.555Z,19.5
2017-05-18T18:16:54.053Z,19.39
2017-05-18T18:17:12.897Z,19.35
2017-05-18T18:17:31.696Z,19.46
2017-05-18T18:17:51.065Z,19.46
2017-05-18T18:18:10.448Z,19.51
2017-05-18T18:18:29.240Z,19.38
2017-05-18T18:18:48.626Z,19.48
2017-05-18T18:19:08.020Z,19.42
2017-05-18T18:19:26.834Z,19.33
2017-05-18T18:19:46.208Z,19.36
2017-05-18T18:20:05.599Z,19.38
2017-05-18T18:20:25.193Z,19.45
2017-05-18T18:20:44.185Z,19.48
2017-05-18T18:21:03.612Z,19.39
2017-05-18T18:21:23.038Z,19.48
2017-05-18T18:21:42.555Z,19.31
2017-05-18T18:22:02.400Z,19.28
2017-05-18T18:22:20.697Z,19.36
2017-05-18T18:22:40.067Z,19.36
2017-05-18T18:22:59.473Z,19.45
2017-05-18T18:23:18.393Z,19.42
2017-05-18T18:23:37.277Z,19.42
2017-05-18T18:23:56.594Z,19.36
2017-05-18T18:24:15.917Z,19.39
2017-05-18T18:24:35.309Z,19.32
2017-05-18T18:24:54.383Z,19.33
2017-05-18T18:25:13.181Z,19.48
2017-05-18T18:25:32.144Z,19.64
2017-05-18T18:25:51.114Z,19.58
2017-05-18T18:26:12.008Z,19.46
2017-05-18T18:26:31.344Z,19.58
2017-05-18T18:26:50.246Z,19.45
2017-05-18T18:27:09.600Z,19.54
2017-05-18T18:27:28.999Z,19.63
2017-05-18T18:27:49.845Z,19.58
2017-05-18T18:28:09.596Z,19.64
2017-05-18T18:28:41.877Z,19.64
2017-05-18T18:29:01.304Z,19.63
2017-05-18T18:29:20.155Z,19.69
2017-05-18T18:29:41.071Z,19.6
2017-05-18T18:30:00.478Z,19.57
2017-05-18T18:30:19.355Z,19.46
2017-05-18T18:30:38.871Z,19.51
2017-05-18T18:30:58.304Z,19.48
2017-05-18T18:31:17.767Z,19.28
2017-05-18T18:31:37.111Z,19.33
2017-05-18T18:32:10.297Z,19.36
2017-05-18T18:32:29.859Z,19.48
2017-05-18T18:32:49.517Z,19.45
2017-05-18T18:33:08.593Z,19.42
2017-05-18T18:33:28.151Z,19.33
2017-05-18T18:33:46.972Z,19.33
2017-05-18T18:34:06.331Z,19.36
2017-05-18T18:34:25.686Z,19.36
2017-05-18T18:34:45.217Z,19.31
2017-05-18T18:35:05.311Z,19.28
2017-05-18T18:35:25.320Z,19.25
2017-05-18T18:35:45.018Z,19.28
2017-05-18T18:36:04.587Z,19.31
2017-05-18T18:36:23.342Z,19.36
2017-05-18T18:36:42.254Z,19.33
2017-05-18T18:37:01.700Z,19.21
2017-05-18T18:37:21.586Z,19.2
2017-05-18T18:37:40.952Z,19.13
2017-05-18T18:38:01.080Z,19.17
2017-05-18T18:38:20.503Z,19.17
2017-05-18T18:38:39.362Z,19.09
2017-05-18T18:38:58.175Z,19.08
2017-05-18T18:39:17.046Z,19.11
2017-05-18T18:39:35.988Z,19.05
2017-05-18T18:39:55.248Z,19.06
2017-05-18T18:40:14.700Z,19.15
2017-05-18T18:40:34.104Z,19.11
2017-05-18T18:40:53.413Z,19.06
2017-05-18T18:41:12.877Z,19.05
2017-05-18T18:41:32.318Z,18.92
2017-05-18T18:41:51.205Z,18.92
2017-05-18T18:42:09.970Z,19.13
2017-05-18T18:42:28.300Z,18.98
2017-05-18T18:42:47.704Z,19.13
2017-05-18T18:43:07.102Z,18.98
2017-05-18T18:43:25.993Z,18.99
2017-05-18T18:43:44.888Z,19.15
2017-05-18T18:44:04.250Z,19.08
2017-05-18T18:44:22.994Z,19.17
2017-05-18T18:44:42.449Z,19.2
2017-05-18T18:45:01.235Z,19.25
2017-05-18T18:45:20.607Z,19.31
2017-05-18T18:45:40.056Z,19.25
2017-05-18T18:45:59.481Z,19.23
2017-05-18T18:46:18.863Z,19.28
2017-05-18T18:46:52.162Z,19.25
2017-05-18T18:47:11.087Z,19.25
2017-05-18T18:47:30.538Z,19.33
2017-05-18T18:47:48.953Z,19.24
2017-05-18T18:48:08.230Z,19.31
2017-05-18T18:48:25.971Z,19.24
2017-05-18T18:48:44.216Z,19.18
2017-05-18T18:49:03.488Z,19.24
2017-05-18T18:49:22.290Z,19.35
2017-05-18T18:49:41.650Z,19.31
2017-05-18T18:50:01.242Z,19.23
2017-05-18T18:50:20.534Z,19.24
2017-05-18T18:50:39.833Z,19.32
2017-05-18T18:50:59.121Z,19.25
2017-05-18T18:51:17.892Z,19.28
2017-05-18T18:51:37.145Z,19.35
2017-05-18T18:51:56.410Z,19.27
2017-05-18T18:52:15.664Z,19.31
2017-05-18T18:52:34.944Z,19.28
2017-05-18T18:52:54.257Z,19.21
2017-05-18T18:53:13.638Z,19.28
2017-05-18T18:53:32.932Z,19.27
2017-05-18T18:53:52.270Z,19.15
2017-05-18T18:54:11.063Z,19.24
2017-05-18T18:54:29.877Z,19.17
2017-05-18T18:54:49.170Z,19.17
2017-05-18T18:55:08.416Z,19.18
2017-05-18T18:55:26.681Z,19.15
2017-05-18T18:55:45.994Z,19.13
2017-05-18T18:56:05.310Z,19.11
2017-05-18T18:56:23.596Z,19.18
2017-05-18T18:56:42.898Z,19.21
2017-05-18T18:57:02.141Z,19.27
2017-05-18T18:57:20.964Z,19.25
2017-05-18T18:57:40.264Z,19.28
2017-05-18T18:57:59.529Z,19.21
2017-05-18T18:58:18.308Z,19.32
2017-05-18T18:58:37.634Z,19.31
2017-05-18T18:58:56.894Z,19.24
2017-05-18T18:59:16.198Z,19.28
2017-05-18T18:59:35.479Z,19.23
2017-05-18T18:59:54.860Z,19.11
2017-05-18T19:00:13.125Z,19.17
2017-05-18T19:00:32.400Z,19.14
2017-05-18T19:00:51.692Z,19.15
2017-05-18T19:01:10.523Z,19.14
2017-05-18T19:01:29.332Z,19.27
2017-05-18T19:01:48.114Z,19.17
2017-05-18T19:02:06.895Z,19.27
2017-05-18T19:02:26.176Z,19.2
2017-05-18T19:02:44.928Z,19.18
2017-05-18T19:03:04.226Z,19.15
2017-05-18T19:03:23.567Z,19.25
2017-05-18T19:03:42.938Z,19.2
2017-05-18T19:04:02.177Z,19.13
2017-05-18T19:04:21.486Z,19.14
2017-05-18T19:04:39.726Z,19.13
2017-05-18T19:04:59.038Z,19.23
2017-05-18T19:05:18.327Z,19.2
2017-05-18T19:05:37.629Z,19.08
2017-05-18T19:05:56.969Z,19.09
2017-05-18T19:06:16.317Z,19.15
2017-05-18T19:06:35.632Z,19.11
2017-05-18T19:06:54.951Z,19.13
2017-05-18T19:07:14.271Z,19.08
2017-05-18T19:07:33.242Z,18.99
2017-05-18T19:07:51.761Z,18.98
2017-05-18T19:08:10.861Z,19.02
2017-05-18T19:08:29.642Z,19.01
2017-05-18T19:08:48.411Z,19.14
2017-05-18T19:09:07.740Z,19.09
2017-05-18T19:09:27.096Z,18.99
2017-05-18T19:09:46.454Z,19.14
2017-05-18T19:10:05.929Z,19.08
2017-05-18T19:10:25.211Z,19.05
2017-05-18T19:10:44.496Z,19.05
2017-05-18T19:11:03.804Z,19.13
2017-05-18T19:11:23.089Z,19.08
2017-05-18T19:11:41.496Z,18.97
2017-05-18T19:12:02.377Z,18.95
2017-05-18T19:12:21.130Z,18.94
2017-05-18T19:12:40.481Z,18.97
2017-05-18T19:12:59.765Z,18.97
2017-05-18T19:13:18.553Z,19.01
2017-05-18T19:13:37.365Z,18.97
2017-05-18T19:13:56.796Z,18.97
2017-05-18T19:14:15.180Z,19.01
2017-05-18T19:14:34.594Z,18.98
2017-05-18T19:14:53.930Z,18.94
2017-05-18T19:15:12.792Z,19.05
2017-05-18T19:15:32.186Z,18.99
2017-05-18T19:15:51.042Z,18.95
2017-05-18T19:16:10.642Z,18.86
2017-05-18T19:16:28.949Z,18.86
2017-05-18T19:16:48.282Z,18.86
2017-05-18T19:17:07.685Z,18.9
2017-05-18T19:17:26.083Z,18.95
2017-05-18T19:17:44.839Z,18.97
2017-05-18T19:18:04.116Z,18.8
2017-05-18T19:18:23.405Z,18.9
2017-05-18T19:18:42.674Z,18.87
2017-05-18T19:19:00.959Z,18.89
2017-05-18T19:19:20.204Z,18.9
2017-05-18T19:19:39.466Z,18.92
2017-05-18T19:19:58.913Z,18.89
2017-05-18T19:20:18.295Z,18.97
2017-05-18T19:20:37.075Z,18.97
2017-05-18T19:20:56.388Z,18.95
2017-05-18T19:21:15.675Z,18.97
2017-05-18T19:21:34.921Z,18.99
2017-05-18T19:21:54.199Z,18.99
2017-05-18T19:22:12.974Z,18.97
2017-05-18T19:22:31.719Z,18.9
2017-05-18T19:22:50.987Z,18.98
2017-05-18T19:23:10.268Z,19.08
2017-05-18T19:23:29.035Z,18.92
2017-05-18T19:23:48.331Z,19.02
2017-05-18T19:24:07.622Z,18.89
2017-05-18T19:24:25.378Z,18.89
2017-05-18T19:24:44.660Z,18.89
2017-05-18T19:25:04.192Z,18.83
2017-05-18T19:25:23.433Z,18.89
2017-05-18T19:25:43.212Z,18.82
2017-05-18T19:26:02.559Z,18.89
2017-05-18T19:26:21.833Z,18.92
2017-05-18T19:26:41.200Z,18.89
2017-05-18T19:27:00.507Z,18.89
2017-05-18T19:27:19.813Z,18.95
2017-05-18T19:27:39.166Z,18.9
2017-05-18T19:27:58.528Z,18.9
2017-05-18T19:28:18.065Z,18.92
2017-05-18T19:28:37.379Z,18.89
2017-05-18T19:28:56.223Z,18.8
2017-05-18T19:29:15.235Z,18.86
2017-05-18T19:29:34.634Z,18.97
2017-05-18T19:29:54.186Z,18.94
2017-05-18T19:30:13.645Z,18.83
2017-05-18T19:30:32.983Z,18.95
2017-05-18T19:30:51.735Z,18.89
2017-05-18T19:31:11.024Z,18.87
2017-05-18T19:31:30.455Z,18.92
2017-05-18T19:31:49.753Z,19.01
2017-05-18T19:32:09.053Z,18.95
2017-05-18T19:32:28.440Z,18.92
2017-05-18T19:32:47.283Z,18.92
2017-05-18T19:33:06.553Z,18.95
2017-05-18T19:33:25.368Z,18.99
2017-05-18T19:33:44.265Z,18.97
2017-05-18T19:34:03.688Z,18.95
2017-05-18T19:34:23.013Z,19.08
2017-05-18T19:34:42.469Z,19.01
2017-05-18T19:35:01.846Z,18.95
2017-05-18T19:35:21.154Z,19.06
2017-05-18T19:35:40.546Z,19.05
2017-05-18T19:35:59.848Z,19.05
2017-05-18T19:36:19.182Z,19.14
2017-05-18T19:36:38.541Z,19.05
2017-05-18T19:36:57.843Z,18.97
2017-05-18T19:37:17.099Z,19.13
2017-05-18T19:37:35.965Z,19.01
2017-05-18T19:37:54.778Z,19.06
2017-05-18T19:38:13.559Z,19.08
2017-05-18T19:38:32.417Z,19.18
2017-05-18T19:38:51.687Z,19.15
2017-05-18T19:39:09.932Z,18.99
2017-05-18T19:39:29.248Z,18.89
2017-05-18T19:39:48.024Z,19.05
2017-05-18T19:40:07.312Z,18.99
2017-05-18T19:40:26.041Z,18.99
2017-05-18T19:40:45.309Z,19.08
2017-05-18T19:41:04.569Z,19.14
2017-05-18T19:41:23.380Z,19.13
2017-05-18T19:41:42.750Z,19.15
2017-05-18T19:42:02.029Z,19.17
2017-05-18T19:42:20.338Z,19.2
2017-05-18T19:42:39.641Z,19.15
2017-05-18T19:42:58.933Z,19.09
2017-05-18T19:43:18.214Z,19.18
2017-05-18T19:43:37.012Z,19.14
2017-05-18T19:43:56.287Z,19.09
2017-05-18T19:44:15.598Z,19.13
2017-05-18T19:44:34.877Z,19.11
2017-05-18T19:44:54.200Z,19.11
2017-05-18T19:45:13.573Z,19.09
2017-05-18T19:45:32.319Z,19.15
2017-05-18T19:45:51.111Z,19.02
2017-05-18T19:46:08.876Z,18.95
2017-05-18T19:46:28.151Z,18.97
2017-05-18T19:46:47.436Z,19.02
2017-05-18T19:47:06.295Z,18.97
2017-05-18T19:47:25.569Z,18.97
2017-05-18T19:47:44.887Z,19.01
2017-05-18T19:48:04.144Z,19.01
2017-05-18T19:48:22.932Z,19.01
2017-05-18T19:48:42.207Z,19.06
2017-05-18T19:49:00.966Z,18.99
2017-05-18T19:49:19.715Z,19.08
2017-05-18T19:49:38.472Z,18.98
2017-05-18T19:49:57.868Z,19.01
2017-05-18T19:50:17.184Z,19.05
2017-05-18T19:50:36.903Z,19.01
2017-05-18T19:50:56.163Z,18.94
2017-05-18T19:51:15.416Z,18.97
2017-05-18T19:51:34.698Z,18.97
2017-05-18T19:51:54.014Z,19.06